Orbital elements of SL-12 R/B
| Launched | 29 May 1985 |
| Flight ended | – |
| Launch site | Tyuratam Missile and Space Center, Kazakhstan (Also known as Baikonur Cosmodrome) |
| Owner | Commonwealth of Independent States (former USSR) |
| NORAD ID | 15773 |
| Alternative names |
AUX MOTOR |
| Date fetched |
Epoch osculation |
Inc. [°] |
Ecc. | RA asc node [hr] |
Arg Peri. [°] |
Mean anom [°] |
Mean motion [rev/day] |
Abs. mag |
| Date fetched |
Epoch osculation |
Inc. [°] |
Ecc. | RA asc node [hr] |
Arg Peri. [°] |
Mean anom [°] |
Mean motion [rev/day] |
Abs. mag |
| 2026 May 03 17:57 | 2026 Apr 30 14:21:53 | 66.5891 | 0.00410 | 3.5170 | 269.1544 | 264.0715 | 14.28132 | 8.743 |
| 2026 May 02 17:57 | 2026 Apr 30 14:21:53 | 66.5891 | 0.00410 | 3.5170 | 269.1544 | 264.0715 | 14.28132 | 8.743 |
| 2026 May 01 17:56 | 2026 Apr 30 14:21:53 | 66.5891 | 0.00410 | 3.5170 | 269.1544 | 264.0715 | 14.28132 | 8.743 |
| 2026 Apr 30 17:56 | 2026 Apr 30 14:21:53 | 66.5891 | 0.00410 | 3.5170 | 269.1544 | 264.0715 | 14.28132 | 8.743 |
| 2026 Apr 29 17:57 | 2026 Apr 24 06:58:58 | 66.5879 | 0.00410 | 4.6185 | 272.7406 | 264.0715 | 14.28132 | 8.743 |
| 2026 Apr 28 17:56 | 2026 Apr 24 06:58:58 | 66.5879 | 0.00410 | 4.6185 | 272.7406 | 264.0715 | 14.28132 | 8.743 |
| 2026 Apr 27 17:58 | 2026 Apr 24 06:58:58 | 66.5879 | 0.00410 | 4.6185 | 272.7406 | 264.0715 | 14.28132 | 8.743 |
| 2026 Apr 26 17:58 | 2026 Apr 24 06:58:58 | 66.5879 | 0.00410 | 4.6185 | 272.7406 | 264.0715 | 14.28132 | 8.743 |
| 2026 Apr 25 17:58 | 2026 Apr 24 06:58:58 | 66.5879 | 0.00410 | 4.6185 | 272.7406 | 264.0715 | 14.28132 | 8.743 |
| 2026 Apr 24 17:59 | 2026 Apr 24 06:58:58 | 66.5879 | 0.00410 | 4.6185 | 272.7406 | 264.0715 | 14.28132 | 8.743 |
| 2026 Apr 23 17:57 | 2026 Apr 19 07:16:26 | 66.5869 | 0.00410 | 5.4895 | 275.5546 | 264.0715 | 14.28132 | 8.743 |
| 2026 Apr 22 17:57 | 2026 Apr 19 07:16:26 | 66.5869 | 0.00410 | 5.4895 | 275.5546 | 264.0715 | 14.28132 | 8.743 |
| 2026 Apr 21 17:57 | 2026 Apr 19 07:16:26 | 66.5869 | 0.00410 | 5.4895 | 275.5546 | 264.0715 | 14.28132 | 8.743 |
| 2026 Apr 20 17:57 | 2026 Apr 19 07:16:26 | 66.5869 | 0.00410 | 5.4895 | 275.5546 | 264.0715 | 14.28132 | 8.743 |
| 2026 Apr 19 17:58 | 2026 Apr 19 07:16:26 | 66.5869 | 0.00410 | 5.4895 | 275.5546 | 264.0715 | 14.28132 | 8.743 |
| 2026 Apr 18 17:56 | 2026 Apr 13 06:27:44 | 66.5860 | 0.00409 | 6.5433 | 278.9600 | 264.0715 | 14.28132 | 8.743 |
| 2026 Apr 16 17:57 | 2026 Apr 13 06:27:44 | 66.5860 | 0.00409 | 6.5433 | 278.9600 | 264.0715 | 14.28132 | 8.743 |
| 2026 Apr 14 17:57 | 2026 Apr 13 06:27:44 | 66.5860 | 0.00409 | 6.5433 | 278.9600 | 264.0715 | 14.28132 | 8.743 |
| 2026 Apr 13 17:57 | 2026 Apr 13 06:27:44 | 66.5860 | 0.00409 | 6.5433 | 278.9600 | 264.0715 | 14.28132 | 8.743 |
| 2026 Apr 12 17:57 | 2026 Apr 08 10:57:34 | 66.5859 | 0.00409 | 7.3838 | 281.6844 | 264.0715 | 14.28132 | 8.743 |
| 2026 Apr 11 17:57 | 2026 Apr 08 10:57:34 | 66.5859 | 0.00409 | 7.3838 | 281.6844 | 264.0715 | 14.28132 | 8.743 |
| 2026 Apr 10 17:58 | 2026 Apr 08 10:57:34 | 66.5859 | 0.00409 | 7.3838 | 281.6844 | 264.0715 | 14.28132 | 8.743 |
| 2026 Apr 09 18:01 | 2026 Apr 08 10:57:34 | 66.5859 | 0.00409 | 7.3838 | 281.6844 | 264.0715 | 14.28132 | 8.743 |
| 2026 Apr 08 17:57 | 2026 Apr 08 10:57:34 | 66.5859 | 0.00409 | 7.3838 | 281.6844 | 264.0715 | 14.28132 | 8.743 |
| 2026 Apr 07 17:57 | 2026 Apr 02 06:54:04 | 66.5863 | 0.00407 | 8.4611 | 285.1713 | 264.0715 | 14.28132 | 8.743 |
| 2026 Apr 06 17:57 | 2026 Apr 02 06:54:04 | 66.5863 | 0.00407 | 8.4611 | 285.1713 | 264.0715 | 14.28132 | 8.743 |